« Back
NWS Peachtree City, Ga » Text Product » CSG Terminal Aerodrome Forecast


Printer-friendly Version
Current Version              Previous Versions:   1  2  3  4  5  6  7  8  9  

Terminal Aerodrome Forecast

751
FTUS42 KFFC 010914 AAB
TAFCSG
TAF AMD
KCSG 010914Z 0109/0206 03003KT P6SM SCT002
      TEMPO 0109/0112 2SM BR BKN002
     FM011500 06005KT P6SM BKN040 PROB30 0119/0124 5SM -TSRA
      BKN040CB
     FM020200 00000KT P6SM SCT250=

USA.gov is the U.S. government's official web portal to all federal, state and local government web resources and services.